createdAt,value
2022-08-28T00:00:54.250Z,22.20
2022-08-28T00:03:21.333Z,22.30
2022-08-28T00:05:48.027Z,22.00
2022-08-28T00:08:16.639Z,21.90
2022-08-28T00:10:43.815Z,21.80
2022-08-28T00:13:18.395Z,21.90
2022-08-28T00:15:46.304Z,21.90
2022-08-28T00:18:13.792Z,21.80
2022-08-28T00:20:40.684Z,22.00
2022-08-28T00:23:07.524Z,22.10
2022-08-28T00:25:34.835Z,22.10
2022-08-28T00:28:10.491Z,21.50
2022-08-28T00:30:48.878Z,21.30
2022-08-28T00:33:30.064Z,21.10
2022-08-28T00:35:57.782Z,21.20
2022-08-28T00:38:25.751Z,21.50
2022-08-28T00:40:55.257Z,21.60
2022-08-28T00:43:42.262Z,21.40
2022-08-28T00:46:19.548Z,21.50
2022-08-28T00:48:46.363Z,21.60
2022-08-28T00:51:33.221Z,21.70
2022-08-28T00:54:02.181Z,21.40
2022-08-28T00:56:32.452Z,20.90
2022-08-28T00:59:03.999Z,20.70
2022-08-28T01:01:31.228Z,20.70
2022-08-28T01:03:58.007Z,20.70
2022-08-28T01:06:24.887Z,20.60
2022-08-28T01:08:53.866Z,20.80
2022-08-28T01:11:30.024Z,21.00
2022-08-28T01:14:01.982Z,21.10
2022-08-28T01:17:01.197Z,21.10
2022-08-28T01:20:37.323Z,21.30
2022-08-28T01:27:28.857Z,21.40
2022-08-28T01:30:26.359Z,21.50
2022-08-28T01:33:09.305Z,21.30
2022-08-28T01:35:47.447Z,20.90
2022-08-28T01:38:20.265Z,21.10
2022-08-28T01:40:58.540Z,21.40
2022-08-28T01:43:28.193Z,21.40
2022-08-28T01:46:04.853Z,20.90
2022-08-28T01:48:37.133Z,20.90
2022-08-28T01:51:09.097Z,20.80
2022-08-28T01:53:37.959Z,20.90
2022-08-28T01:56:33.664Z,21.10
2022-08-28T01:59:09.822Z,21.20
2022-08-28T02:01:48.807Z,20.80
2022-08-28T02:04:16.667Z,21.00
2022-08-28T02:07:00.221Z,20.90
2022-08-28T02:09:27.167Z,20.90
2022-08-28T02:11:55.035Z,20.80
2022-08-28T02:14:27.934Z,20.70
2022-08-28T02:16:54.793Z,20.40
2022-08-28T02:19:22.424Z,20.50
2022-08-28T02:21:52.134Z,20.60
2022-08-28T02:24:18.977Z,20.40
2022-08-28T02:26:46.928Z,19.80
2022-08-28T02:29:17.252Z,20.70
2022-08-28T02:31:44.098Z,20.70
2022-08-28T02:34:11.468Z,20.50
2022-08-28T02:36:45.370Z,20.70
2022-08-28T02:39:15.938Z,20.70
2022-08-28T02:41:43.262Z,20.30
2022-08-28T02:44:10.159Z,20.70
2022-08-28T02:46:37.046Z,20.40
2022-08-28T02:49:05.686Z,20.50
2022-08-28T02:51:35.499Z,20.60
2022-08-28T02:54:09.459Z,20.70
2022-08-28T02:56:45.343Z,20.50
2022-08-28T02:59:13.494Z,20.70
2022-08-28T03:01:40.423Z,20.70
2022-08-28T03:04:09.809Z,19.90
2022-08-28T03:06:36.707Z,19.90
2022-08-28T03:09:06.826Z,20.00
2022-08-28T03:11:33.949Z,20.20
2022-08-28T03:14:03.184Z,20.30
2022-08-28T03:16:30.997Z,20.20
2022-08-28T03:18:58.254Z,20.70
2022-08-28T03:21:24.963Z,19.90
2022-08-28T03:23:51.673Z,19.90
2022-08-28T03:26:20.109Z,20.00
2022-08-28T03:28:52.927Z,19.90
2022-08-28T03:31:24.069Z,20.20
2022-08-28T03:33:51.218Z,20.20
2022-08-28T03:36:23.836Z,20.10
2022-08-28T03:38:52.009Z,20.20
2022-08-28T03:41:23.216Z,20.10
2022-08-28T03:43:50.826Z,20.30
2022-08-28T03:46:20.532Z,20.50
2022-08-28T03:48:47.281Z,20.40
2022-08-28T03:51:19.419Z,20.30
2022-08-28T03:53:52.650Z,20.50
2022-08-28T03:56:22.610Z,20.20
2022-08-28T03:58:55.047Z,20.50
2022-08-28T04:01:22.030Z,20.60
2022-08-28T04:03:49.139Z,20.80
2022-08-28T04:06:15.923Z,20.70
2022-08-28T04:08:45.691Z,20.80
2022-08-28T04:11:13.039Z,20.70
2022-08-28T04:13:41.514Z,20.60
2022-08-28T04:16:10.941Z,20.90
2022-08-28T04:18:42.984Z,20.20
2022-08-28T04:21:16.291Z,20.50
2022-08-28T04:23:44.127Z,20.60
2022-08-28T04:26:13.434Z,20.30
2022-08-28T04:28:40.212Z,20.00
2022-08-28T04:31:08.167Z,20.00
2022-08-28T04:33:35.771Z,20.10
2022-08-28T04:36:13.309Z,20.00
2022-08-28T04:38:43.934Z,19.90
2022-08-28T04:41:14.122Z,19.60
2022-08-28T04:43:40.870Z,19.70
2022-08-28T04:46:10.005Z,19.50
2022-08-28T04:48:37.437Z,19.80
2022-08-28T04:51:09.350Z,19.60
2022-08-28T04:53:37.161Z,19.60
2022-08-28T04:56:06.685Z,19.70
2022-08-28T04:58:34.266Z,19.90
2022-08-28T05:01:09.866Z,20.30
2022-08-28T05:03:37.039Z,20.30
2022-08-28T05:06:04.551Z,20.60
2022-08-28T05:08:31.791Z,20.80
2022-08-28T05:11:12.619Z,20.70
2022-08-28T05:13:39.585Z,20.50
2022-08-28T05:16:06.701Z,20.90
2022-08-28T05:18:33.536Z,20.20
2022-08-28T05:21:01.866Z,20.50
2022-08-28T05:23:28.727Z,20.90
2022-08-28T05:25:55.473Z,21.00
2022-08-28T05:28:24.458Z,21.10
2022-08-28T05:30:51.227Z,21.10
2022-08-28T05:33:17.982Z,20.90
2022-08-28T05:35:45.908Z,20.80
2022-08-28T05:38:14.055Z,20.90
2022-08-28T05:40:43.889Z,21.10
2022-08-28T05:43:11.870Z,20.80
2022-08-28T05:45:38.627Z,20.80
2022-08-28T05:48:05.577Z,20.90
2022-08-28T05:50:32.443Z,20.80
2022-08-28T05:52:59.170Z,20.80
2022-08-28T05:55:25.910Z,21.30
2022-08-28T05:57:52.648Z,21.40
2022-08-28T06:00:19.446Z,22.00
2022-08-28T06:02:46.133Z,22.90
2022-08-28T06:05:13.216Z,24.00
2022-08-28T06:07:41.090Z,25.10
2022-08-28T06:10:10.639Z,25.40
2022-08-28T06:12:37.828Z,25.60
2022-08-28T06:15:05.560Z,25.90
2022-08-28T06:17:32.264Z,26.00
2022-08-28T06:19:58.989Z,26.20
2022-08-28T06:22:25.680Z,26.20
2022-08-28T06:24:52.391Z,25.90
2022-08-28T06:27:19.194Z,23.90
2022-08-28T06:29:45.906Z,24.20
2022-08-28T06:32:13.211Z,24.10
2022-08-28T06:34:39.975Z,24.50
2022-08-28T06:37:07.879Z,23.70
2022-08-28T06:39:34.577Z,23.40
2022-08-28T06:42:01.339Z,23.60
2022-08-28T06:44:28.695Z,24.00
2022-08-28T06:46:55.557Z,24.10
2022-08-28T06:49:22.442Z,24.30
2022-08-28T06:51:49.205Z,23.70
2022-08-28T06:54:22.258Z,23.80
2022-08-28T06:56:51.293Z,23.30
2022-08-28T06:59:18.001Z,23.30
2022-08-28T07:01:44.756Z,23.70
2022-08-28T07:04:14.389Z,24.30
2022-08-28T07:06:46.769Z,24.60
2022-08-28T07:09:13.870Z,25.00
2022-08-28T07:11:40.606Z,25.80
2022-08-28T07:14:07.509Z,26.10
2022-08-28T07:16:38.306Z,26.70
2022-08-28T07:19:07.170Z,28.00
2022-08-28T07:21:36.966Z,28.50
2022-08-28T07:24:06.860Z,29.60
2022-08-28T07:26:34.054Z,29.80
2022-08-28T07:29:10.880Z,30.40
2022-08-28T07:31:40.685Z,30.30
2022-08-28T07:34:08.343Z,30.60
2022-08-28T07:36:35.917Z,29.60
2022-08-28T07:39:04.979Z,28.70
2022-08-28T07:41:32.890Z,29.80
2022-08-28T07:44:18.737Z,30.80
2022-08-28T07:46:45.856Z,30.00
2022-08-28T07:49:15.452Z,30.00
2022-08-28T07:51:42.552Z,31.70
2022-08-28T07:54:17.626Z,32.40
2022-08-28T07:56:45.545Z,31.40
2022-08-28T07:59:15.694Z,30.70
2022-08-28T08:01:46.379Z,30.90
2022-08-28T08:04:14.226Z,31.40
2022-08-28T08:06:41.682Z,28.80
2022-08-28T08:09:09.662Z,27.30
2022-08-28T08:11:36.846Z,25.90
2022-08-28T08:14:05.490Z,25.30
2022-08-28T08:16:34.531Z,24.80
2022-08-28T08:19:02.037Z,24.70
2022-08-28T08:21:30.493Z,25.70
2022-08-28T08:23:58.063Z,25.20
2022-08-28T08:26:27.896Z,25.50
2022-08-28T08:28:55.098Z,24.80
2022-08-28T08:31:32.836Z,25.60
2022-08-28T08:34:02.418Z,25.90
2022-08-28T08:36:30.635Z,25.50
2022-08-28T08:38:59.926Z,25.60
2022-08-28T08:41:34.998Z,25.20
2022-08-28T08:44:23.672Z,25.20
2022-08-28T08:47:13.823Z,25.40
2022-08-28T08:49:53.070Z,26.00
2022-08-28T08:52:24.423Z,26.00
2022-08-28T08:55:06.175Z,26.20
2022-08-28T08:57:35.006Z,26.20
2022-08-28T09:00:05.727Z,25.70
2022-08-28T09:02:37.611Z,25.30
2022-08-28T09:05:11.531Z,25.50
2022-08-28T09:07:41.862Z,24.80
2022-08-28T09:10:12.259Z,24.90
2022-08-28T09:13:06.999Z,24.90
2022-08-28T09:15:36.512Z,25.00
2022-08-28T09:18:14.154Z,24.90
2022-08-28T09:20:42.463Z,24.90
2022-08-28T09:23:13.454Z,24.80
2022-08-28T09:25:47.497Z,24.70
2022-08-28T09:28:22.034Z,24.60
2022-08-28T09:31:00.223Z,24.80
2022-08-28T09:33:35.240Z,24.40
2022-08-28T09:36:21.727Z,24.50
2022-08-28T09:39:23.921Z,24.40
2022-08-28T09:42:12.433Z,24.70
2022-08-28T09:44:57.961Z,24.70
2022-08-28T09:47:49.566Z,24.50
2022-08-28T09:50:39.088Z,24.30
2022-08-28T09:53:09.021Z,24.50
2022-08-28T09:55:45.167Z,24.40
2022-08-28T09:58:15.018Z,24.70
2022-08-28T10:00:51.275Z,24.70
2022-08-28T10:03:46.853Z,24.70
2022-08-28T10:06:26.462Z,25.30
2022-08-28T10:08:59.239Z,25.60
2022-08-28T10:11:34.075Z,26.00
2022-08-28T10:14:09.733Z,26.30
2022-08-28T10:16:50.932Z,26.10
2022-08-28T10:19:23.062Z,26.40
2022-08-28T10:22:14.993Z,26.30
2022-08-28T10:25:01.275Z,26.50
2022-08-28T10:27:40.975Z,26.90
2022-08-28T10:31:31.701Z,26.80
2022-08-28T10:34:20.836Z,27.30
2022-08-28T10:37:01.746Z,26.90
2022-08-28T10:39:55.532Z,26.80
2022-08-28T10:42:36.197Z,27.00
2022-08-28T10:45:25.661Z,27.10
2022-08-28T10:48:26.559Z,26.90
2022-08-28T11:02:01.053Z,26.20
2022-08-28T11:11:12.233Z,27.00
2022-08-28T11:14:02.195Z,27.10
2022-08-28T11:16:28.951Z,27.00
2022-08-28T11:19:43.419Z,28.00
2022-08-28T11:22:29.185Z,28.60
2022-08-28T11:25:13.319Z,28.70
2022-08-28T11:28:22.397Z,28.20
2022-08-28T11:31:05.894Z,28.30
2022-08-28T11:33:58.926Z,28.30
2022-08-28T11:36:28.102Z,28.10
2022-08-28T11:38:55.447Z,28.40
2022-08-28T11:41:30.226Z,28.60
2022-08-28T11:44:14.946Z,27.80
2022-08-28T11:46:49.379Z,28.30
2022-08-28T11:49:34.469Z,28.20
2022-08-28T11:52:29.915Z,28.70
2022-08-28T11:55:17.699Z,28.60
2022-08-28T12:00:59.910Z,28.50
2022-08-28T12:03:55.524Z,28.80
2022-08-28T12:07:05.596Z,29.10
2022-08-28T12:09:48.316Z,28.90
2022-08-28T12:12:21.400Z,29.50
2022-08-28T12:14:48.106Z,30.00
2022-08-28T12:17:31.462Z,29.70
2022-08-28T12:20:11.491Z,29.40
2022-08-28T12:22:49.926Z,28.70
2022-08-28T12:25:36.053Z,29.10
2022-08-28T12:28:20.723Z,28.40
2022-08-28T12:31:05.888Z,28.10
2022-08-28T12:33:40.916Z,28.40
2022-08-28T12:36:17.143Z,28.70
2022-08-28T12:38:51.190Z,28.70
2022-08-28T12:41:20.987Z,28.70
2022-08-28T12:43:58.325Z,28.90
2022-08-28T12:46:25.100Z,29.30
2022-08-28T12:48:59.724Z,29.70
2022-08-28T12:51:35.218Z,30.60
2022-08-28T12:54:06.692Z,30.80
2022-08-28T12:56:37.235Z,30.40
2022-08-28T12:59:23.134Z,30.10
2022-08-28T13:01:54.526Z,30.00
2022-08-28T13:04:35.426Z,30.40
2022-08-28T13:07:16.659Z,29.20
2022-08-28T13:09:49.118Z,29.70
2022-08-28T13:12:44.124Z,29.90
2022-08-28T13:15:14.145Z,29.70
2022-08-28T13:17:52.995Z,29.00
2022-08-28T13:20:32.562Z,29.10
2022-08-28T13:23:00.262Z,29.00
2022-08-28T13:25:34.891Z,28.80
2022-08-28T13:28:17.691Z,28.80
2022-08-28T13:30:59.117Z,29.00
2022-08-28T13:33:27.211Z,29.00
2022-08-28T13:35:55.121Z,29.00
2022-08-28T13:38:25.141Z,29.20
2022-08-28T13:41:04.001Z,28.90
2022-08-28T13:43:47.465Z,29.00
2022-08-28T13:46:14.335Z,28.80
2022-08-28T13:48:41.166Z,29.10
2022-08-28T13:51:14.320Z,29.10
2022-08-28T13:53:48.656Z,29.40
2022-08-28T13:56:17.491Z,29.70
2022-08-28T13:58:44.619Z,30.40
2022-08-28T14:01:14.910Z,30.70
2022-08-28T14:03:43.400Z,31.00
2022-08-28T14:06:18.283Z,30.50
2022-08-28T14:08:46.707Z,30.50
2022-08-28T14:11:15.653Z,30.60
2022-08-28T14:13:47.080Z,31.20
2022-08-28T14:16:22.834Z,30.90
2022-08-28T14:18:50.362Z,31.70
2022-08-28T14:21:17.122Z,31.40
2022-08-28T14:23:43.982Z,31.50
2022-08-28T14:26:11.116Z,31.80
2022-08-28T14:28:38.061Z,31.60
2022-08-28T14:31:09.874Z,31.90
2022-08-28T14:33:39.173Z,32.30
2022-08-28T14:36:14.467Z,32.50
2022-08-28T14:38:41.376Z,32.10
2022-08-28T14:41:08.849Z,32.60
2022-08-28T14:43:35.747Z,32.40
2022-08-28T14:46:02.604Z,32.20
2022-08-28T14:48:29.523Z,31.90
2022-08-28T14:50:56.282Z,31.00
2022-08-28T14:53:23.049Z,31.40
2022-08-28T14:55:50.516Z,31.30
2022-08-28T14:58:19.070Z,31.80
2022-08-28T15:00:49.547Z,30.30
2022-08-28T15:03:18.496Z,30.30
2022-08-28T15:05:51.856Z,30.80
2022-08-28T15:08:24.779Z,30.00
2022-08-28T15:11:21.869Z,29.90
2022-08-28T15:14:01.884Z,30.00
2022-08-28T15:16:55.426Z,30.40
2022-08-28T15:19:29.038Z,30.80
2022-08-28T15:22:27.341Z,30.70
2022-08-28T15:24:59.145Z,31.00
2022-08-28T15:27:42.869Z,31.30
2022-08-28T15:30:16.107Z,31.40
2022-08-28T15:32:56.237Z,31.20
2022-08-28T15:35:23.015Z,30.90
2022-08-28T15:37:50.413Z,30.60
2022-08-28T15:40:35.864Z,30.40
2022-08-28T15:43:02.730Z,30.70
2022-08-28T15:45:29.569Z,30.40
2022-08-28T15:48:01.187Z,30.80
2022-08-28T15:50:27.963Z,30.30
2022-08-28T15:52:54.765Z,30.70
2022-08-28T15:55:21.733Z,31.00
2022-08-28T15:57:49.605Z,30.40
2022-08-28T16:00:17.355Z,30.40
2022-08-28T16:03:03.172Z,31.00
2022-08-28T16:05:40.722Z,31.50
2022-08-28T16:08:11.720Z,31.60
2022-08-28T16:10:40.145Z,31.70
2022-08-28T16:13:07.720Z,30.00
2022-08-28T16:15:35.301Z,30.40
2022-08-28T16:18:02.195Z,29.40
2022-08-28T16:20:28.993Z,29.40
2022-08-28T16:22:55.750Z,28.90
2022-08-28T16:25:22.544Z,28.60
2022-08-28T16:27:49.372Z,28.40
2022-08-28T16:30:17.621Z,28.70
2022-08-28T16:32:46.714Z,28.40
2022-08-28T16:35:15.017Z,28.40
2022-08-28T16:37:42.200Z,28.30
2022-08-28T16:40:10.808Z,28.00
2022-08-28T16:42:38.504Z,28.30
2022-08-28T16:45:06.362Z,28.20
2022-08-28T16:47:35.524Z,27.50
2022-08-28T16:50:08.834Z,27.20
2022-08-28T16:52:35.988Z,27.80
2022-08-28T16:55:04.492Z,27.30
2022-08-28T16:57:31.467Z,26.90
2022-08-28T16:59:58.247Z,27.30
2022-08-28T17:02:26.597Z,26.90
2022-08-28T17:04:55.155Z,26.80
2022-08-28T17:07:22.892Z,26.90
2022-08-28T17:09:49.662Z,26.90
2022-08-28T17:12:16.720Z,26.90
2022-08-28T17:14:44.010Z,26.60
2022-08-28T17:17:11.512Z,26.40
2022-08-28T17:19:38.616Z,26.40
2022-08-28T17:22:27.067Z,26.40
2022-08-28T17:24:54.889Z,26.40
2022-08-28T17:27:22.496Z,26.40
2022-08-28T17:29:50.241Z,26.60
2022-08-28T17:32:17.523Z,26.50
2022-08-28T17:34:44.506Z,26.30
2022-08-28T17:37:11.692Z,26.30
2022-08-28T17:39:38.476Z,26.30
2022-08-28T17:42:06.046Z,26.10
2022-08-28T17:44:33.134Z,26.40
2022-08-28T17:47:00.833Z,26.10
2022-08-28T17:49:27.728Z,26.30
2022-08-28T17:51:54.504Z,26.30
2022-08-28T17:54:24.124Z,26.30
2022-08-28T17:56:53.182Z,26.30
2022-08-28T17:59:21.496Z,26.50
2022-08-28T18:01:49.339Z,26.60
2022-08-28T18:04:23.828Z,26.50
2022-08-28T18:06:54.193Z,25.70
2022-08-28T18:09:23.063Z,25.90
2022-08-28T18:11:49.995Z,25.60
2022-08-28T18:14:17.216Z,25.60
2022-08-28T18:16:44.003Z,25.80
2022-08-28T18:19:11.960Z,26.00
2022-08-28T18:21:39.677Z,26.20
2022-08-28T18:24:07.281Z,26.40
2022-08-28T18:26:34.370Z,26.30
2022-08-28T18:29:01.226Z,25.80
2022-08-28T18:31:28.114Z,26.00
2022-08-28T18:33:54.942Z,25.80
2022-08-28T18:36:23.219Z,25.80
2022-08-28T18:38:51.119Z,26.20
2022-08-28T18:41:19.969Z,26.20
2022-08-28T18:43:47.473Z,26.00
2022-08-28T18:46:14.451Z,26.10
2022-08-28T18:48:42.331Z,26.10
2022-08-28T18:51:11.978Z,26.40
2022-08-28T18:53:42.385Z,26.20
2022-08-28T18:56:12.249Z,26.20
2022-08-28T18:58:41.506Z,26.10
2022-08-28T19:01:09.280Z,26.20
2022-08-28T19:03:36.766Z,26.30
2022-08-28T19:06:06.167Z,26.30
2022-08-28T19:08:35.232Z,25.70
2022-08-28T19:11:08.001Z,25.90
2022-08-28T19:13:35.680Z,25.90
2022-08-28T19:16:03.232Z,25.90
2022-08-28T19:18:30.163Z,25.60
2022-08-28T19:21:10.747Z,25.40
2022-08-28T19:23:44.585Z,25.60
2022-08-28T19:26:22.713Z,25.60
2022-08-28T19:28:50.528Z,25.70
2022-08-28T19:31:18.038Z,25.40
2022-08-28T19:33:46.925Z,25.40
2022-08-28T19:36:14.452Z,25.50
2022-08-28T19:38:41.810Z,25.40
2022-08-28T19:41:10.688Z,25.40
2022-08-28T19:43:42.941Z,25.60
2022-08-28T19:46:14.446Z,25.70
2022-08-28T19:48:52.259Z,25.70
2022-08-28T19:51:22.717Z,25.60
2022-08-28T19:53:58.336Z,25.40
2022-08-28T19:56:28.390Z,25.40
2022-08-28T19:58:58.269Z,25.20
2022-08-28T20:01:31.269Z,25.20
2022-08-28T20:03:59.576Z,25.00
2022-08-28T20:06:28.103Z,25.10
2022-08-28T20:08:54.999Z,24.80
2022-08-28T20:11:25.184Z,25.00
2022-08-28T20:13:59.488Z,25.10
2022-08-28T20:16:27.834Z,24.70
2022-08-28T20:18:57.620Z,24.80
2022-08-28T20:21:36.821Z,25.20
2022-08-28T20:24:11.661Z,24.90
2022-08-28T20:26:38.616Z,24.80
2022-08-28T20:29:08.525Z,24.90
2022-08-28T20:31:38.227Z,24.70
2022-08-28T20:34:04.996Z,24.70
2022-08-28T20:36:31.802Z,24.70
2022-08-28T20:38:58.674Z,24.70
2022-08-28T20:41:25.511Z,24.50
2022-08-28T20:43:52.752Z,24.40
2022-08-28T20:46:19.718Z,24.50
2022-08-28T20:48:47.184Z,24.50
2022-08-28T20:51:14.103Z,24.50
2022-08-28T20:53:40.963Z,24.40
2022-08-28T20:56:10.620Z,24.50
2022-08-28T20:58:38.543Z,24.20
2022-08-28T21:01:05.642Z,24.70
2022-08-28T21:03:32.758Z,24.50
2022-08-28T21:05:59.596Z,24.50
2022-08-28T21:08:26.426Z,24.80
2022-08-28T21:10:53.247Z,24.80
2022-08-28T21:13:20.469Z,24.40
2022-08-28T21:15:47.638Z,24.70
2022-08-28T21:18:14.837Z,24.80
2022-08-28T21:20:42.067Z,24.60
2022-08-28T21:23:10.396Z,24.00
2022-08-28T21:25:37.323Z,24.30
2022-08-28T21:28:06.636Z,24.50
2022-08-28T21:30:34.138Z,24.30
2022-08-28T21:33:00.968Z,24.50
2022-08-28T21:35:27.859Z,24.40
2022-08-28T21:37:54.624Z,24.80
2022-08-28T21:40:21.554Z,24.60
2022-08-28T21:42:48.359Z,24.50
2022-08-28T21:45:15.153Z,24.50
2022-08-28T21:47:43.104Z,24.20
2022-08-28T21:50:11.850Z,24.30
2022-08-28T21:52:39.322Z,24.80
2022-08-28T21:55:14.734Z,24.60
2022-08-28T21:57:42.752Z,24.80
2022-08-28T22:00:20.479Z,24.80
2022-08-28T22:02:48.223Z,24.80
2022-08-28T22:05:16.203Z,24.80
2022-08-28T22:07:44.935Z,24.50
2022-08-28T22:10:12.442Z,24.80
2022-08-28T22:12:39.268Z,24.60
2022-08-28T22:15:06.888Z,25.10
2022-08-28T22:17:33.752Z,24.90
2022-08-28T22:20:00.600Z,24.60
2022-08-28T22:22:46.044Z,24.70
2022-08-28T22:25:13.034Z,24.80
2022-08-28T22:27:39.807Z,24.40
2022-08-28T22:30:07.311Z,25.00
2022-08-28T22:32:34.100Z,24.70
2022-08-28T22:35:00.875Z,25.10
2022-08-28T22:37:27.758Z,25.00
2022-08-28T22:39:54.630Z,24.90
2022-08-28T22:42:21.582Z,24.90
2022-08-28T22:44:48.362Z,25.10
2022-08-28T22:47:15.122Z,25.30
2022-08-28T22:49:42.612Z,24.80
2022-08-28T22:52:11.073Z,25.00
2022-08-28T22:54:38.393Z,24.80
2022-08-28T22:57:05.759Z,24.70
2022-08-28T22:59:33.625Z,24.40
2022-08-28T23:02:01.545Z,24.20
2022-08-28T23:04:28.380Z,24.50
2022-08-28T23:06:55.332Z,24.50
2022-08-28T23:09:22.278Z,24.40
2022-08-28T23:11:49.928Z,24.40
2022-08-28T23:14:16.848Z,24.50
2022-08-28T23:16:44.047Z,24.70
2022-08-28T23:19:13.531Z,24.40
2022-08-28T23:21:43.921Z,24.60
2022-08-28T23:24:16.065Z,24.70
2022-08-28T23:26:44.787Z,24.70
2022-08-28T23:29:13.076Z,24.50
2022-08-28T23:31:40.232Z,24.60
2022-08-28T23:34:07.843Z,24.70
2022-08-28T23:36:35.933Z,24.90
2022-08-28T23:39:04.968Z,24.90
2022-08-28T23:41:33.416Z,24.80
2022-08-28T23:44:03.182Z,24.90
2022-08-28T23:46:32.464Z,24.70
2022-08-28T23:48:59.859Z,24.60
2022-08-28T23:51:26.750Z,24.80
2022-08-28T23:53:53.546Z,24.70
2022-08-28T23:56:20.321Z,24.50
2022-08-28T23:58:47.091Z,24.20
